sensor_id;sensor_type;location;lat;lon;timestamp;P1;durP1;ratioP1;P2;durP2;ratioP2
63189;SDS011;49286;44.460;26.114;2023-05-21T00:00:47;6.35;;;3.28;;
63189;SDS011;49286;44.460;26.114;2023-05-21T00:03:14;6.85;;;3.97;;
63189;SDS011;49286;44.460;26.114;2023-05-21T00:05:40;5.75;;;3.35;;
63189;SDS011;49286;44.460;26.114;2023-05-21T00:08:06;6.85;;;4.22;;
63189;SDS011;49286;44.460;26.114;2023-05-21T00:10:31;4.45;;;3.88;;
63189;SDS011;49286;44.460;26.114;2023-05-21T00:12:57;6.45;;;3.78;;
63189;SDS011;49286;44.460;26.114;2023-05-21T00:15:22;6.97;;;3.90;;
63189;SDS011;49286;44.460;26.114;2023-05-21T00:17:48;7.45;;;4.07;;
63189;SDS011;49286;44.460;26.114;2023-05-21T00:20:13;8.07;;;3.90;;
63189;SDS011;49286;44.460;26.114;2023-05-21T00:22:40;5.50;;;3.13;;
63189;SDS011;49286;44.460;26.114;2023-05-21T00:25:06;6.90;;;4.30;;
63189;SDS011;49286;44.460;26.114;2023-05-21T00:27:32;5.25;;;3.92;;
63189;SDS011;49286;44.460;26.114;2023-05-21T00:29:58;6.50;;;4.93;;
63189;SDS011;49286;44.460;26.114;2023-05-21T00:32:23;7.35;;;3.75;;
63189;SDS011;49286;44.460;26.114;2023-05-21T00:34:49;5.35;;;3.50;;
63189;SDS011;49286;44.460;26.114;2023-05-21T00:37:14;5.22;;;3.60;;
63189;SDS011;49286;44.460;26.114;2023-05-21T00:39:40;11.50;;;4.72;;
63189;SDS011;49286;44.460;26.114;2023-05-21T00:42:06;7.10;;;4.45;;
63189;SDS011;49286;44.460;26.114;2023-05-21T00:44:31;8.00;;;4.30;;
63189;SDS011;49286;44.460;26.114;2023-05-21T00:47:01;6.43;;;3.90;;
63189;SDS011;49286;44.460;26.114;2023-05-21T00:49:26;6.90;;;3.42;;
63189;SDS011;49286;44.460;26.114;2023-05-21T00:51:52;5.65;;;4.18;;
63189;SDS011;49286;44.460;26.114;2023-05-21T00:54:19;6.18;;;3.58;;
63189;SDS011;49286;44.460;26.114;2023-05-21T00:56:45;7.47;;;4.57;;
63189;SDS011;49286;44.460;26.114;2023-05-21T00:59:11;6.55;;;4.65;;
63189;SDS011;49286;44.460;26.114;2023-05-21T01:01:40;8.82;;;4.85;;
63189;SDS011;49286;44.460;26.114;2023-05-21T01:04:09;6.53;;;4.18;;
63189;SDS011;49286;44.460;26.114;2023-05-21T01:06:35;5.90;;;3.85;;
63189;SDS011;49286;44.460;26.114;2023-05-21T01:09:02;5.32;;;3.95;;
63189;SDS011;49286;44.460;26.114;2023-05-21T01:11:42;7.57;;;3.83;;
63189;SDS011;49286;44.460;26.114;2023-05-21T01:14:11;6.90;;;5.30;;
63189;SDS011;49286;44.460;26.114;2023-05-21T01:16:39;5.22;;;3.20;;
63189;SDS011;49286;44.460;26.114;2023-05-21T01:19:09;7.07;;;3.72;;
63189;SDS011;49286;44.460;26.114;2023-05-21T01:21:40;5.00;;;3.55;;
63189;SDS011;49286;44.460;26.114;2023-05-21T01:24:08;5.95;;;4.18;;
63189;SDS011;49286;44.460;26.114;2023-05-21T01:26:34;6.68;;;4.55;;
63189;SDS011;49286;44.460;26.114;2023-05-21T01:29:02;7.95;;;5.78;;
63189;SDS011;49286;44.460;26.114;2023-05-21T01:34:25;6.25;;;3.83;;
63189;SDS011;49286;44.460;26.114;2023-05-21T01:37:03;6.03;;;4.43;;
63189;SDS011;49286;44.460;26.114;2023-05-21T01:39:54;11.15;;;4.70;;
63189;SDS011;49286;44.460;26.114;2023-05-21T01:42:23;10.15;;;5.45;;
63189;SDS011;49286;44.460;26.114;2023-05-21T01:44:53;6.10;;;4.70;;
63189;SDS011;49286;44.460;26.114;2023-05-21T01:47:23;9.20;;;5.60;;
63189;SDS011;49286;44.460;26.114;2023-05-21T01:49:50;7.13;;;4.13;;
63189;SDS011;49286;44.460;26.114;2023-05-21T01:52:17;6.25;;;3.83;;
63189;SDS011;49286;44.460;26.114;2023-05-21T01:54:42;6.50;;;3.97;;
63189;SDS011;49286;44.460;26.114;2023-05-21T01:57:08;7.68;;;5.40;;
63189;SDS011;49286;44.460;26.114;2023-05-21T01:59:33;6.30;;;4.32;;
63189;SDS011;49286;44.460;26.114;2023-05-21T02:02:00;6.38;;;3.90;;
63189;SDS011;49286;44.460;26.114;2023-05-21T02:04:25;7.20;;;3.90;;
63189;SDS011;49286;44.460;26.114;2023-05-21T02:06:51;12.32;;;6.38;;
63189;SDS011;49286;44.460;26.114;2023-05-21T02:09:18;8.13;;;4.43;;
63189;SDS011;49286;44.460;26.114;2023-05-21T02:11:44;7.25;;;4.28;;
63189;SDS011;49286;44.460;26.114;2023-05-21T02:14:09;7.20;;;3.72;;
63189;SDS011;49286;44.460;26.114;2023-05-21T02:16:38;5.75;;;4.18;;
63189;SDS011;49286;44.460;26.114;2023-05-21T02:19:03;7.28;;;3.75;;
63189;SDS011;49286;44.460;26.114;2023-05-21T02:21:30;6.35;;;3.67;;
63189;SDS011;49286;44.460;26.114;2023-05-21T02:23:56;4.57;;;3.53;;
63189;SDS011;49286;44.460;26.114;2023-05-21T02:26:21;6.47;;;3.50;;
63189;SDS011;49286;44.460;26.114;2023-05-21T02:28:47;6.30;;;4.43;;
63189;SDS011;49286;44.460;26.114;2023-05-21T02:31:12;14.52;;;5.80;;
63189;SDS011;49286;44.460;26.114;2023-05-21T02:33:41;6.53;;;4.13;;
63189;SDS011;49286;44.460;26.114;2023-05-21T02:36:06;6.93;;;4.22;;
63189;SDS011;49286;44.460;26.114;2023-05-21T02:38:39;9.02;;;3.88;;
63189;SDS011;49286;44.460;26.114;2023-05-21T02:41:07;6.40;;;3.97;;
63189;SDS011;49286;44.460;26.114;2023-05-21T02:43:36;6.18;;;4.13;;
63189;SDS011;49286;44.460;26.114;2023-05-21T02:46:03;7.00;;;5.03;;
63189;SDS011;49286;44.460;26.114;2023-05-21T02:48:30;7.40;;;4.95;;
63189;SDS011;49286;44.460;26.114;2023-05-21T02:50:55;7.43;;;3.85;;
63189;SDS011;49286;44.460;26.114;2023-05-21T02:53:20;5.90;;;3.58;;
63189;SDS011;49286;44.460;26.114;2023-05-21T02:55:46;7.70;;;4.45;;
63189;SDS011;49286;44.460;26.114;2023-05-21T02:58:12;8.15;;;3.95;;
63189;SDS011;49286;44.460;26.114;2023-05-21T03:00:39;7.03;;;4.13;;
63189;SDS011;49286;44.460;26.114;2023-05-21T03:03:04;9.30;;;5.13;;
63189;SDS011;49286;44.460;26.114;2023-05-21T03:05:30;8.50;;;4.50;;
63189;SDS011;49286;44.460;26.114;2023-05-21T03:07:55;6.68;;;4.30;;
63189;SDS011;49286;44.460;26.114;2023-05-21T03:10:21;5.93;;;4.20;;
63189;SDS011;49286;44.460;26.114;2023-05-21T03:12:46;7.47;;;4.25;;
63189;SDS011;49286;44.460;26.114;2023-05-21T03:15:12;4.85;;;3.38;;
63189;SDS011;49286;44.460;26.114;2023-05-21T03:17:40;8.23;;;4.47;;
63189;SDS011;49286;44.460;26.114;2023-05-21T03:20:09;7.53;;;5.00;;
63189;SDS011;49286;44.460;26.114;2023-05-21T03:22:41;6.70;;;4.72;;
63189;SDS011;49286;44.460;26.114;2023-05-21T03:25:08;7.57;;;4.35;;
63189;SDS011;49286;44.460;26.114;2023-05-21T03:27:34;6.85;;;4.05;;
63189;SDS011;49286;44.460;26.114;2023-05-21T03:29:59;5.72;;;4.43;;
63189;SDS011;49286;44.460;26.114;2023-05-21T03:32:25;5.72;;;3.55;;
63189;SDS011;49286;44.460;26.114;2023-05-21T03:34:50;6.18;;;3.85;;
63189;SDS011;49286;44.460;26.114;2023-05-21T03:37:17;6.45;;;3.83;;
63189;SDS011;49286;44.460;26.114;2023-05-21T03:39:43;6.35;;;3.72;;
63189;SDS011;49286;44.460;26.114;2023-05-21T03:42:08;8.30;;;4.25;;
63189;SDS011;49286;44.460;26.114;2023-05-21T03:44:34;6.20;;;4.75;;
63189;SDS011;49286;44.460;26.114;2023-05-21T03:46:59;6.18;;;4.03;;
63189;SDS011;49286;44.460;26.114;2023-05-21T03:49:25;5.55;;;2.97;;
63189;SDS011;49286;44.460;26.114;2023-05-21T03:51:50;5.22;;;3.10;;
63189;SDS011;49286;44.460;26.114;2023-05-21T03:54:17;5.75;;;4.10;;
63189;SDS011;49286;44.460;26.114;2023-05-21T03:56:42;5.57;;;3.95;;
63189;SDS011;49286;44.460;26.114;2023-05-21T03:59:08;7.90;;;4.45;;
63189;SDS011;49286;44.460;26.114;2023-05-21T04:01:33;6.25;;;4.55;;
63189;SDS011;49286;44.460;26.114;2023-05-21T04:03:59;14.90;;;4.95;;
63189;SDS011;49286;44.460;26.114;2023-05-21T04:06:24;6.68;;;4.13;;
63189;SDS011;49286;44.460;26.114;2023-05-21T04:08:50;5.60;;;3.75;;
63189;SDS011;49286;44.460;26.114;2023-05-21T04:11:16;5.10;;;3.47;;
63189;SDS011;49286;44.460;26.114;2023-05-21T04:13:41;7.47;;;4.85;;
63189;SDS011;49286;44.460;26.114;2023-05-21T04:16:07;7.10;;;3.75;;
63189;SDS011;49286;44.460;26.114;2023-05-21T04:18:33;5.18;;;3.50;;
63189;SDS011;49286;44.460;26.114;2023-05-21T04:20:59;4.30;;;3.22;;
63189;SDS011;49286;44.460;26.114;2023-05-21T04:23:26;6.53;;;3.80;;
63189;SDS011;49286;44.460;26.114;2023-05-21T04:25:52;7.10;;;4.47;;
63189;SDS011;49286;44.460;26.114;2023-05-21T04:28:17;6.38;;;4.45;;
63189;SDS011;49286;44.460;26.114;2023-05-21T04:30:44;6.05;;;4.05;;
63189;SDS011;49286;44.460;26.114;2023-05-21T04:33:11;6.53;;;4.25;;
63189;SDS011;49286;44.460;26.114;2023-05-21T04:35:36;5.82;;;3.53;;
63189;SDS011;49286;44.460;26.114;2023-05-21T04:38:08;5.63;;;3.70;;
63189;SDS011;49286;44.460;26.114;2023-05-21T04:40:34;6.82;;;4.22;;
63189;SDS011;49286;44.460;26.114;2023-05-21T04:43:00;5.10;;;3.67;;
63189;SDS011;49286;44.460;26.114;2023-05-21T04:45:27;7.05;;;4.38;;
63189;SDS011;49286;44.460;26.114;2023-05-21T04:47:53;8.55;;;4.20;;
63189;SDS011;49286;44.460;26.114;2023-05-21T04:50:18;6.10;;;3.78;;
63189;SDS011;49286;44.460;26.114;2023-05-21T04:52:44;4.72;;;2.95;;
63189;SDS011;49286;44.460;26.114;2023-05-21T04:55:09;6.82;;;3.95;;
63189;SDS011;49286;44.460;26.114;2023-05-21T04:57:36;5.82;;;3.65;;
63189;SDS011;49286;44.460;26.114;2023-05-21T05:00:01;4.35;;;2.88;;
63189;SDS011;49286;44.460;26.114;2023-05-21T05:02:30;8.75;;;4.03;;
63189;SDS011;49286;44.460;26.114;2023-05-21T05:04:55;5.68;;;3.53;;
63189;SDS011;49286;44.460;26.114;2023-05-21T05:07:21;9.80;;;2.95;;
63189;SDS011;49286;44.460;26.114;2023-05-21T05:09:47;5.45;;;3.83;;
63189;SDS011;49286;44.460;26.114;2023-05-21T05:12:12;6.22;;;2.55;;
63189;SDS011;49286;44.460;26.114;2023-05-21T05:14:37;5.05;;;3.63;;
63189;SDS011;49286;44.460;26.114;2023-05-21T05:17:03;4.68;;;3.30;;
63189;SDS011;49286;44.460;26.114;2023-05-21T05:19:29;7.22;;;4.07;;
63189;SDS011;49286;44.460;26.114;2023-05-21T05:21:55;5.65;;;3.67;;
63189;SDS011;49286;44.460;26.114;2023-05-21T05:24:21;4.40;;;3.03;;
63189;SDS011;49286;44.460;26.114;2023-05-21T05:26:46;4.97;;;3.33;;
63189;SDS011;49286;44.460;26.114;2023-05-21T05:29:12;5.43;;;3.13;;
63189;SDS011;49286;44.460;26.114;2023-05-21T05:31:37;6.88;;;2.80;;
63189;SDS011;49286;44.460;26.114;2023-05-21T05:34:03;5.75;;;3.67;;
63189;SDS011;49286;44.460;26.114;2023-05-21T05:36:28;9.07;;;3.08;;
63189;SDS011;49286;44.460;26.114;2023-05-21T05:38:54;5.80;;;3.40;;
63189;SDS011;49286;44.460;26.114;2023-05-21T05:41:19;4.28;;;2.47;;
63189;SDS011;49286;44.460;26.114;2023-05-21T05:43:45;3.90;;;2.40;;
63189;SDS011;49286;44.460;26.114;2023-05-21T05:46:10;6.50;;;3.20;;
63189;SDS011;49286;44.460;26.114;2023-05-21T05:48:36;4.10;;;2.53;;
63189;SDS011;49286;44.460;26.114;2023-05-21T05:51:01;4.78;;;2.63;;
63189;SDS011;49286;44.460;26.114;2023-05-21T05:53:27;4.70;;;2.88;;
63189;SDS011;49286;44.460;26.114;2023-05-21T05:55:52;3.47;;;2.08;;
63189;SDS011;49286;44.460;26.114;2023-05-21T05:58:18;4.75;;;2.58;;
63189;SDS011;49286;44.460;26.114;2023-05-21T06:00:43;7.05;;;3.40;;
63189;SDS011;49286;44.460;26.114;2023-05-21T06:03:09;4.03;;;2.38;;
63189;SDS011;49286;44.460;26.114;2023-05-21T06:05:35;4.05;;;2.05;;
63189;SDS011;49286;44.460;26.114;2023-05-21T06:08:01;5.00;;;2.78;;
63189;SDS011;49286;44.460;26.114;2023-05-21T06:10:26;4.63;;;2.72;;
63189;SDS011;49286;44.460;26.114;2023-05-21T06:12:52;4.85;;;3.08;;
63189;SDS011;49286;44.460;26.114;2023-05-21T06:15:17;3.10;;;2.30;;
63189;SDS011;49286;44.460;26.114;2023-05-21T06:17:43;4.18;;;2.55;;
63189;SDS011;49286;44.460;26.114;2023-05-21T06:20:09;3.95;;;2.28;;
63189;SDS011;49286;44.460;26.114;2023-05-21T06:22:36;4.53;;;2.75;;
63189;SDS011;49286;44.460;26.114;2023-05-21T06:25:01;5.10;;;2.80;;
63189;SDS011;49286;44.460;26.114;2023-05-21T06:27:27;3.05;;;2.00;;
63189;SDS011;49286;44.460;26.114;2023-05-21T06:29:52;3.88;;;1.80;;
63189;SDS011;49286;44.460;26.114;2023-05-21T06:32:18;3.67;;;2.05;;
63189;SDS011;49286;44.460;26.114;2023-05-21T06:34:45;4.75;;;3.28;;
63189;SDS011;49286;44.460;26.114;2023-05-21T06:37:10;4.32;;;2.70;;
63189;SDS011;49286;44.460;26.114;2023-05-21T06:39:36;4.70;;;2.63;;
63189;SDS011;49286;44.460;26.114;2023-05-21T06:42:02;8.85;;;2.00;;
63189;SDS011;49286;44.460;26.114;2023-05-21T06:44:27;4.68;;;2.78;;
63189;SDS011;49286;44.460;26.114;2023-05-21T06:46:53;4.53;;;1.98;;
63189;SDS011;49286;44.460;26.114;2023-05-21T06:49:18;3.80;;;2.40;;
63189;SDS011;49286;44.460;26.114;2023-05-21T06:51:44;3.08;;;1.70;;
63189;SDS011;49286;44.460;26.114;2023-05-21T06:54:11;6.85;;;3.85;;
63189;SDS011;49286;44.460;26.114;2023-05-21T06:56:36;4.53;;;2.28;;
63189;SDS011;49286;44.460;26.114;2023-05-21T06:59:02;4.10;;;2.30;;
63189;SDS011;49286;44.460;26.114;2023-05-21T07:01:27;5.97;;;3.47;;
63189;SDS011;49286;44.460;26.114;2023-05-21T07:03:54;3.58;;;2.28;;
63189;SDS011;49286;44.460;26.114;2023-05-21T07:06:20;3.78;;;2.45;;
63189;SDS011;49286;44.460;26.114;2023-05-21T07:08:46;4.18;;;1.63;;
63189;SDS011;49286;44.460;26.114;2023-05-21T07:11:13;2.70;;;1.88;;
63189;SDS011;49286;44.460;26.114;2023-05-21T07:13:39;5.90;;;2.67;;
63189;SDS011;49286;44.460;26.114;2023-05-21T07:16:05;6.38;;;2.08;;
63189;SDS011;49286;44.460;26.114;2023-05-21T07:18:30;3.42;;;2.30;;
63189;SDS011;49286;44.460;26.114;2023-05-21T07:20:56;5.57;;;2.97;;
63189;SDS011;49286;44.460;26.114;2023-05-21T07:23:21;2.47;;;1.50;;
63189;SDS011;49286;44.460;26.114;2023-05-21T07:25:47;5.43;;;3.35;;
63189;SDS011;49286;44.460;26.114;2023-05-21T07:28:12;4.35;;;2.08;;
63189;SDS011;49286;44.460;26.114;2023-05-21T07:30:38;6.93;;;2.47;;
63189;SDS011;49286;44.460;26.114;2023-05-21T07:33:03;4.93;;;3.08;;
63189;SDS011;49286;44.460;26.114;2023-05-21T07:35:29;3.65;;;2.15;;
63189;SDS011;49286;44.460;26.114;2023-05-21T07:37:54;4.15;;;1.65;;
63189;SDS011;49286;44.460;26.114;2023-05-21T07:40:20;3.40;;;2.15;;
63189;SDS011;49286;44.460;26.114;2023-05-21T07:42:45;3.53;;;2.22;;
63189;SDS011;49286;44.460;26.114;2023-05-21T07:45:11;3.88;;;2.47;;
63189;SDS011;49286;44.460;26.114;2023-05-21T07:47:36;2.97;;;1.90;;
63189;SDS011;49286;44.460;26.114;2023-05-21T07:50:02;4.53;;;2.45;;
63189;SDS011;49286;44.460;26.114;2023-05-21T07:52:27;4.43;;;2.33;;
63189;SDS011;49286;44.460;26.114;2023-05-21T07:54:53;3.15;;;1.73;;
63189;SDS011;49286;44.460;26.114;2023-05-21T07:57:18;3.80;;;2.25;;
63189;SDS011;49286;44.460;26.114;2023-05-21T07:59:44;3.85;;;2.13;;
63189;SDS011;49286;44.460;26.114;2023-05-21T08:02:09;3.78;;;2.08;;
63189;SDS011;49286;44.460;26.114;2023-05-21T08:04:35;3.53;;;2.53;;
63189;SDS011;49286;44.460;26.114;2023-05-21T08:07:01;4.03;;;2.53;;
63189;SDS011;49286;44.460;26.114;2023-05-21T08:09:26;3.65;;;1.92;;
63189;SDS011;49286;44.460;26.114;2023-05-21T08:11:52;4.47;;;2.30;;
63189;SDS011;49286;44.460;26.114;2023-05-21T08:14:17;3.83;;;2.38;;
63189;SDS011;49286;44.460;26.114;2023-05-21T08:16:43;3.17;;;2.17;;
63189;SDS011;49286;44.460;26.114;2023-05-21T08:19:09;6.13;;;2.50;;
63189;SDS011;49286;44.460;26.114;2023-05-21T08:21:34;3.92;;;1.83;;
63189;SDS011;49286;44.460;26.114;2023-05-21T08:24:00;6.97;;;2.53;;
63189;SDS011;49286;44.460;26.114;2023-05-21T08:26:27;3.08;;;1.95;;
63189;SDS011;49286;44.460;26.114;2023-05-21T08:28:52;4.22;;;2.00;;
63189;SDS011;49286;44.460;26.114;2023-05-21T08:31:18;4.30;;;2.60;;
63189;SDS011;49286;44.460;26.114;2023-05-21T08:33:50;3.97;;;2.33;;
63189;SDS011;49286;44.460;26.114;2023-05-21T08:38:42;8.88;;;3.65;;
63189;SDS011;49286;44.460;26.114;2023-05-21T08:41:07;2.75;;;1.67;;
63189;SDS011;49286;44.460;26.114;2023-05-21T08:43:35;4.35;;;1.95;;
63189;SDS011;49286;44.460;26.114;2023-05-21T08:46:02;5.15;;;2.80;;
63189;SDS011;49286;44.460;26.114;2023-05-21T08:48:28;5.45;;;2.15;;
63189;SDS011;49286;44.460;26.114;2023-05-21T08:50:55;3.30;;;2.38;;
63189;SDS011;49286;44.460;26.114;2023-05-21T08:53:22;3.58;;;2.45;;
63189;SDS011;49286;44.460;26.114;2023-05-21T08:55:51;3.50;;;2.30;;
63189;SDS011;49286;44.460;26.114;2023-05-21T08:58:20;4.78;;;2.20;;
63189;SDS011;49286;44.460;26.114;2023-05-21T09:00:46;5.90;;;2.03;;
63189;SDS011;49286;44.460;26.114;2023-05-21T09:03:11;3.63;;;2.40;;
63189;SDS011;49286;44.460;26.114;2023-05-21T09:05:41;3.70;;;1.90;;
63189;SDS011;49286;44.460;26.114;2023-05-21T09:08:17;9.32;;;3.38;;
63189;SDS011;49286;44.460;26.114;2023-05-21T09:10:49;4.47;;;2.45;;
63189;SDS011;49286;44.460;26.114;2023-05-21T09:13:15;2.38;;;1.77;;
63189;SDS011;49286;44.460;26.114;2023-05-21T09:15:42;3.13;;;1.92;;
63189;SDS011;49286;44.460;26.114;2023-05-21T09:18:12;3.90;;;2.25;;
63189;SDS011;49286;44.460;26.114;2023-05-21T09:20:39;2.95;;;2.03;;
63189;SDS011;49286;44.460;26.114;2023-05-21T09:23:05;6.03;;;2.40;;
63189;SDS011;49286;44.460;26.114;2023-05-21T09:25:44;4.25;;;2.35;;
63189;SDS011;49286;44.460;26.114;2023-05-21T09:28:11;3.63;;;2.45;;
63189;SDS011;49286;44.460;26.114;2023-05-21T09:30:47;4.03;;;2.65;;
63189;SDS011;49286;44.460;26.114;2023-05-21T09:33:27;3.63;;;1.80;;
63189;SDS011;49286;44.460;26.114;2023-05-21T09:35:56;3.67;;;2.05;;
63189;SDS011;49286;44.460;26.114;2023-05-21T09:38:22;4.88;;;1.85;;
63189;SDS011;49286;44.460;26.114;2023-05-21T09:40:48;5.72;;;1.92;;
63189;SDS011;49286;44.460;26.114;2023-05-21T09:43:13;2.67;;;1.63;;
63189;SDS011;49286;44.460;26.114;2023-05-21T09:45:52;3.90;;;2.67;;
63189;SDS011;49286;44.460;26.114;2023-05-21T09:48:31;2.85;;;1.63;;
63189;SDS011;49286;44.460;26.114;2023-05-21T09:51:11;4.43;;;2.30;;
63189;SDS011;49286;44.460;26.114;2023-05-21T09:53:52;5.00;;;2.13;;
63189;SDS011;49286;44.460;26.114;2023-05-21T09:56:22;5.00;;;2.13;;
63189;SDS011;49286;44.460;26.114;2023-05-21T09:58:53;3.00;;;1.95;;
63189;SDS011;49286;44.460;26.114;2023-05-21T10:01:20;3.70;;;2.67;;
63189;SDS011;49286;44.460;26.114;2023-05-21T10:03:54;11.80;;;2.25;;
63189;SDS011;49286;44.460;26.114;2023-05-21T10:06:22;4.25;;;2.03;;
63189;SDS011;49286;44.460;26.114;2023-05-21T10:08:51;3.42;;;1.88;;
63189;SDS011;49286;44.460;26.114;2023-05-21T10:11:20;3.38;;;2.25;;
63189;SDS011;49286;44.460;26.114;2023-05-21T10:13:48;5.53;;;4.03;;
63189;SDS011;49286;44.460;26.114;2023-05-21T10:16:19;2.70;;;1.45;;
63189;SDS011;49286;44.460;26.114;2023-05-21T10:18:46;2.92;;;1.85;;
63189;SDS011;49286;44.460;26.114;2023-05-21T10:21:13;2.60;;;1.45;;
63189;SDS011;49286;44.460;26.114;2023-05-21T10:23:39;3.72;;;2.05;;
63189;SDS011;49286;44.460;26.114;2023-05-21T10:26:06;3.40;;;1.88;;
63189;SDS011;49286;44.460;26.114;2023-05-21T10:28:32;6.32;;;1.90;;
63189;SDS011;49286;44.460;26.114;2023-05-21T10:30:59;3.30;;;2.05;;
63189;SDS011;49286;44.460;26.114;2023-05-21T10:33:24;2.97;;;2.00;;
63189;SDS011;49286;44.460;26.114;2023-05-21T10:35:52;6.03;;;2.63;;
63189;SDS011;49286;44.460;26.114;2023-05-21T10:38:18;4.90;;;2.58;;
63189;SDS011;49286;44.460;26.114;2023-05-21T10:40:45;3.72;;;1.70;;
63189;SDS011;49286;44.460;26.114;2023-05-21T10:43:19;4.22;;;2.72;;
63189;SDS011;49286;44.460;26.114;2023-05-21T10:51:19;3.90;;;2.40;;
63189;SDS011;49286;44.460;26.114;2023-05-21T10:59:44;3.30;;;1.40;;
63189;SDS011;49286;44.460;26.114;2023-05-21T11:02:15;4.30;;;2.20;;
63189;SDS011;49286;44.460;26.114;2023-05-21T11:04:43;2.88;;;2.13;;
63189;SDS011;49286;44.460;26.114;2023-05-21T11:07:12;4.90;;;2.42;;
63189;SDS011;49286;44.460;26.114;2023-05-21T11:09:48;4.75;;;2.78;;
63189;SDS011;49286;44.460;26.114;2023-05-21T11:12:14;4.95;;;2.15;;
63189;SDS011;49286;44.460;26.114;2023-05-21T11:14:56;3.10;;;1.92;;
63189;SDS011;49286;44.460;26.114;2023-05-21T11:17:35;3.28;;;1.88;;
63189;SDS011;49286;44.460;26.114;2023-05-21T11:20:03;7.65;;;2.25;;
63189;SDS011;49286;44.460;26.114;2023-05-21T11:22:33;2.85;;;1.60;;
63189;SDS011;49286;44.460;26.114;2023-05-21T11:25:00;7.03;;;2.17;;
63189;SDS011;49286;44.460;26.114;2023-05-21T11:29:58;6.95;;;3.65;;
63189;SDS011;49286;44.460;26.114;2023-05-21T11:32:25;3.20;;;1.90;;
63189;SDS011;49286;44.460;26.114;2023-05-21T11:34:50;4.75;;;1.90;;
63189;SDS011;49286;44.460;26.114;2023-05-21T11:39:42;3.72;;;2.75;;
63189;SDS011;49286;44.460;26.114;2023-05-21T11:42:08;2.58;;;1.63;;
63189;SDS011;49286;44.460;26.114;2023-05-21T11:44:37;3.97;;;2.40;;
63189;SDS011;49286;44.460;26.114;2023-05-21T11:47:07;4.68;;;2.38;;
63189;SDS011;49286;44.460;26.114;2023-05-21T11:49:34;2.90;;;1.90;;
63189;SDS011;49286;44.460;26.114;2023-05-21T11:52:00;3.85;;;2.08;;
63189;SDS011;49286;44.460;26.114;2023-05-21T11:54:26;4.22;;;2.60;;
63189;SDS011;49286;44.460;26.114;2023-05-21T11:56:58;3.03;;;1.98;;
63189;SDS011;49286;44.460;26.114;2023-05-21T11:59:25;3.90;;;2.42;;
63189;SDS011;49286;44.460;26.114;2023-05-21T12:01:51;5.18;;;1.58;;
63189;SDS011;49286;44.460;26.114;2023-05-21T12:04:16;4.57;;;1.83;;
63189;SDS011;49286;44.460;26.114;2023-05-21T12:06:42;4.10;;;1.15;;
63189;SDS011;49286;44.460;26.114;2023-05-21T12:09:08;4.75;;;2.15;;
63189;SDS011;49286;44.460;26.114;2023-05-21T12:11:36;4.20;;;2.00;;
63189;SDS011;49286;44.460;26.114;2023-05-21T12:14:05;6.55;;;2.95;;
63189;SDS011;49286;44.460;26.114;2023-05-21T12:16:34;4.03;;;1.83;;
63189;SDS011;49286;44.460;26.114;2023-05-21T12:19:03;4.72;;;2.83;;
63189;SDS011;49286;44.460;26.114;2023-05-21T12:21:32;5.35;;;2.88;;
63189;SDS011;49286;44.460;26.114;2023-05-21T12:23:58;14.60;;;3.08;;
63189;SDS011;49286;44.460;26.114;2023-05-21T12:26:24;4.47;;;2.67;;
63189;SDS011;49286;44.460;26.114;2023-05-21T12:28:51;4.53;;;1.88;;
63189;SDS011;49286;44.460;26.114;2023-05-21T12:31:18;7.40;;;3.65;;
63189;SDS011;49286;44.460;26.114;2023-05-21T12:33:49;4.15;;;2.15;;
63189;SDS011;49286;44.460;26.114;2023-05-21T12:36:48;3.85;;;2.20;;
63189;SDS011;49286;44.460;26.114;2023-05-21T12:39:10;4.22;;;1.98;;
63189;SDS011;49286;44.460;26.114;2023-05-21T12:41:36;3.83;;;2.00;;
63189;SDS011;49286;44.460;26.114;2023-05-21T12:44:01;3.58;;;2.10;;
63189;SDS011;49286;44.460;26.114;2023-05-21T12:46:28;3.95;;;2.00;;
63189;SDS011;49286;44.460;26.114;2023-05-21T12:48:54;4.65;;;2.47;;
63189;SDS011;49286;44.460;26.114;2023-05-21T12:51:20;9.50;;;3.83;;
63189;SDS011;49286;44.460;26.114;2023-05-21T12:53:46;5.05;;;2.47;;
63189;SDS011;49286;44.460;26.114;2023-05-21T12:56:12;4.28;;;2.58;;
63189;SDS011;49286;44.460;26.114;2023-05-21T12:58:39;4.05;;;2.60;;
63189;SDS011;49286;44.460;26.114;2023-05-21T13:01:08;3.15;;;1.67;;
63189;SDS011;49286;44.460;26.114;2023-05-21T13:03:39;4.22;;;2.35;;
63189;SDS011;49286;44.460;26.114;2023-05-21T13:06:06;3.63;;;2.25;;
63189;SDS011;49286;44.460;26.114;2023-05-21T13:08:32;4.70;;;1.88;;
63189;SDS011;49286;44.460;26.114;2023-05-21T13:11:01;5.70;;;2.13;;
63189;SDS011;49286;44.460;26.114;2023-05-21T13:13:27;2.80;;;1.77;;
63189;SDS011;49286;44.460;26.114;2023-05-21T13:15:53;3.40;;;2.10;;
63189;SDS011;49286;44.460;26.114;2023-05-21T13:18:21;5.72;;;2.47;;
63189;SDS011;49286;44.460;26.114;2023-05-21T13:20:47;4.53;;;2.17;;
63189;SDS011;49286;44.460;26.114;2023-05-21T13:23:13;3.97;;;1.98;;
63189;SDS011;49286;44.460;26.114;2023-05-21T13:25:42;3.97;;;2.13;;
63189;SDS011;49286;44.460;26.114;2023-05-21T13:28:07;4.30;;;2.22;;
63189;SDS011;49286;44.460;26.114;2023-05-21T13:30:35;3.22;;;1.75;;
63189;SDS011;49286;44.460;26.114;2023-05-21T13:33:01;2.55;;;1.70;;
63189;SDS011;49286;44.460;26.114;2023-05-21T13:35:27;3.83;;;1.85;;
63189;SDS011;49286;44.460;26.114;2023-05-21T13:37:54;3.22;;;2.58;;
63189;SDS011;49286;44.460;26.114;2023-05-21T13:40:20;5.00;;;3.03;;
63189;SDS011;49286;44.460;26.114;2023-05-21T13:42:46;3.13;;;1.67;;
63189;SDS011;49286;44.460;26.114;2023-05-21T13:45:14;3.17;;;2.22;;
63189;SDS011;49286;44.460;26.114;2023-05-21T13:47:41;4.20;;;2.22;;
63189;SDS011;49286;44.460;26.114;2023-05-21T13:50:07;4.72;;;2.58;;
63189;SDS011;49286;44.460;26.114;2023-05-21T13:52:35;4.60;;;2.42;;
63189;SDS011;49286;44.460;26.114;2023-05-21T13:55:01;4.18;;;2.45;;
63189;SDS011;49286;44.460;26.114;2023-05-21T13:57:27;2.47;;;1.45;;
63189;SDS011;49286;44.460;26.114;2023-05-21T13:59:54;4.93;;;3.25;;
63189;SDS011;49286;44.460;26.114;2023-05-21T14:02:20;4.10;;;2.25;;
63189;SDS011;49286;44.460;26.114;2023-05-21T14:04:46;4.20;;;2.20;;
63189;SDS011;49286;44.460;26.114;2023-05-21T14:07:13;3.00;;;2.03;;
63189;SDS011;49286;44.460;26.114;2023-05-21T14:09:38;2.45;;;1.60;;
63189;SDS011;49286;44.460;26.114;2023-05-21T14:12:04;2.70;;;1.65;;
63189;SDS011;49286;44.460;26.114;2023-05-21T14:14:30;6.03;;;3.10;;
63189;SDS011;49286;44.460;26.114;2023-05-21T14:16:56;4.65;;;2.80;;
63189;SDS011;49286;44.460;26.114;2023-05-21T14:19:21;3.97;;;2.03;;
63189;SDS011;49286;44.460;26.114;2023-05-21T14:21:47;3.92;;;2.10;;
63189;SDS011;49286;44.460;26.114;2023-05-21T14:24:12;5.35;;;2.92;;
63189;SDS011;49286;44.460;26.114;2023-05-21T14:26:41;5.85;;;3.20;;
63189;SDS011;49286;44.460;26.114;2023-05-21T14:29:07;5.75;;;3.00;;
63189;SDS011;49286;44.460;26.114;2023-05-21T14:31:33;5.05;;;3.22;;
63189;SDS011;49286;44.460;26.114;2023-05-21T14:33:59;5.10;;;2.08;;
63189;SDS011;49286;44.460;26.114;2023-05-21T14:36:25;3.88;;;2.83;;
63189;SDS011;49286;44.460;26.114;2023-05-21T14:38:51;4.65;;;2.90;;
63189;SDS011;49286;44.460;26.114;2023-05-21T14:41:16;12.50;;;2.47;;
63189;SDS011;49286;44.460;26.114;2023-05-21T14:43:42;5.25;;;2.92;;
63189;SDS011;49286;44.460;26.114;2023-05-21T14:46:07;11.30;;;3.50;;
63189;SDS011;49286;44.460;26.114;2023-05-21T14:48:33;6.30;;;3.33;;
63189;SDS011;49286;44.460;26.114;2023-05-21T14:50:58;3.92;;;2.03;;
63189;SDS011;49286;44.460;26.114;2023-05-21T14:53:24;4.80;;;2.92;;